createdAt,value
2022-11-30T00:00:25.821Z,22.05
2022-11-30T00:05:28.003Z,32.88
2022-11-30T00:10:30.026Z,28.67
2022-11-30T00:15:33.019Z,32.42
2022-11-30T00:20:35.041Z,22.60
2022-11-30T00:25:37.605Z,25.55
2022-11-30T00:30:39.638Z,31.25
2022-11-30T00:35:41.762Z,22.00
2022-11-30T00:40:44.221Z,19.90
2022-11-30T00:45:46.969Z,26.65
2022-11-30T00:50:50.830Z,21.55
2022-11-30T00:55:53.353Z,25.75
2022-11-30T01:00:55.895Z,31.20
2022-11-30T01:06:06.053Z,28.62
2022-11-30T01:11:14.722Z,35.55
2022-11-30T01:16:19.756Z,30.65
2022-11-30T01:21:25.234Z,28.95
2022-11-30T01:26:27.491Z,34.30
2022-11-30T01:31:29.955Z,30.67
2022-11-30T01:36:32.438Z,26.50
2022-11-30T01:41:34.958Z,25.60
2022-11-30T01:46:48.499Z,27.45
2022-11-30T01:51:58.537Z,27.13
2022-11-30T01:57:06.467Z,24.20
2022-11-30T02:02:08.773Z,29.65
2022-11-30T02:07:10.827Z,26.87
2022-11-30T02:12:26.834Z,25.58
2022-11-30T02:17:43.800Z,24.00
2022-11-30T02:23:23.028Z,30.90
2022-11-30T02:29:06.542Z,25.00
2022-11-30T02:34:12.466Z,33.05
2022-11-30T02:39:14.705Z,21.43
2022-11-30T02:49:31.616Z,27.07
2022-11-30T02:54:34.733Z,24.45
2022-11-30T02:59:37.324Z,34.95
2022-11-30T03:04:39.399Z,28.17
2022-11-30T03:09:41.581Z,30.12
2022-11-30T03:14:44.343Z,27.50
2022-11-30T03:19:46.596Z,26.15
2022-11-30T03:24:48.817Z,31.67
2022-11-30T03:29:51.097Z,34.28
2022-11-30T03:34:53.625Z,30.45
2022-11-30T03:39:58.340Z,28.55
2022-11-30T03:45:00.679Z,36.35
2022-11-30T03:50:03.135Z,30.20
2022-11-30T03:55:05.683Z,26.33
2022-11-30T04:00:08.417Z,30.05
2022-11-30T04:05:13.591Z,33.25
2022-11-30T04:10:15.563Z,26.05
2022-11-30T04:15:17.669Z,26.67
2022-11-30T04:20:19.753Z,28.50
2022-11-30T04:25:21.743Z,27.87
2022-11-30T04:30:23.743Z,35.53
2022-11-30T04:35:25.905Z,28.45
2022-11-30T04:40:28.083Z,29.50
2022-11-30T04:45:35.047Z,33.50
2022-11-30T04:50:37.761Z,30.37
2022-11-30T04:55:39.957Z,35.30
2022-11-30T05:00:42.000Z,27.42
2022-11-30T05:05:44.014Z,41.37
2022-11-30T05:10:51.610Z,33.97
2022-11-30T05:15:55.125Z,28.35
2022-11-30T05:20:57.292Z,29.98
2022-11-30T05:26:02.310Z,41.40
2022-11-30T05:31:05.535Z,31.70
2022-11-30T05:36:10.882Z,41.43
2022-11-30T05:41:14.599Z,34.23
2022-11-30T05:46:16.767Z,27.33
2022-11-30T05:51:20.195Z,36.88
2022-11-30T05:56:22.299Z,30.67
2022-11-30T06:01:27.793Z,32.13
2022-11-30T06:06:30.246Z,31.40
2022-11-30T06:11:32.340Z,36.75
2022-11-30T06:16:34.511Z,31.77
2022-11-30T06:21:36.689Z,31.27
2022-11-30T06:26:39.276Z,33.20
2022-11-30T06:31:41.467Z,34.22
2022-11-30T06:36:43.537Z,38.85
2022-11-30T06:41:48.877Z,39.90
2022-11-30T06:46:53.547Z,31.60
2022-11-30T06:51:55.952Z,35.33
2022-11-30T06:56:58.146Z,33.78
2022-11-30T07:02:05.979Z,39.33
2022-11-30T07:07:10.276Z,37.10
2022-11-30T07:12:12.448Z,42.80
2022-11-30T07:17:14.489Z,42.10
2022-11-30T07:22:16.509Z,44.13
2022-11-30T07:27:19.024Z,45.17
2022-11-30T07:32:21.368Z,48.40
2022-11-30T07:37:23.741Z,47.92
2022-11-30T07:42:25.822Z,46.88
2022-11-30T07:47:28.024Z,43.97
2022-11-30T07:52:31.156Z,46.90
2022-11-30T07:57:33.202Z,37.35
2022-11-30T08:02:35.328Z,51.67
2022-11-30T08:07:37.573Z,41.40
2022-11-30T08:12:39.670Z,45.17
2022-11-30T08:17:42.113Z,47.72
2022-11-30T08:22:44.167Z,43.17
2022-11-30T08:27:46.286Z,35.20
2022-11-30T08:32:48.344Z,41.85
2022-11-30T08:37:50.407Z,33.42
2022-11-30T08:42:52.474Z,46.25
2022-11-30T08:47:55.145Z,37.00
2022-11-30T08:58:07.289Z,35.15
2022-11-30T09:03:09.314Z,40.75
2022-11-30T09:08:11.403Z,37.77
2022-11-30T09:13:13.427Z,35.00
2022-11-30T09:18:15.576Z,38.28
2022-11-30T09:23:17.668Z,34.33
2022-11-30T09:28:19.846Z,29.23
2022-11-30T09:33:23.053Z,41.22
2022-11-30T09:38:25.301Z,48.90
2022-11-30T09:43:48.261Z,42.75
2022-11-30T09:49:04.668Z,35.55
2022-11-30T09:54:13.998Z,44.70
2022-11-30T09:59:25.783Z,40.45
2022-11-30T10:04:29.850Z,36.90
2022-11-30T10:09:40.931Z,36.15
2022-11-30T10:15:04.476Z,30.55
2022-11-30T10:20:28.954Z,34.70
2022-11-30T10:26:01.495Z,24.40
2022-11-30T10:31:04.350Z,26.55
2022-11-30T10:36:13.115Z,27.80
2022-11-30T10:41:20.982Z,29.85
2022-11-30T10:46:29.152Z,27.90
2022-11-30T10:51:33.471Z,28.50
2022-11-30T10:56:35.508Z,34.30
2022-11-30T11:01:42.347Z,29.27
2022-11-30T11:06:49.185Z,29.30
2022-11-30T11:11:56.315Z,29.25
2022-11-30T11:16:58.766Z,31.00
2022-11-30T11:22:07.006Z,30.65
2022-11-30T11:27:44.582Z,27.40
2022-11-30T11:33:20.447Z,25.10
2022-11-30T11:38:24.602Z,31.90
2022-11-30T11:43:40.541Z,25.35
2022-11-30T11:48:56.331Z,30.30
2022-11-30T11:54:17.557Z,22.80
2022-11-30T11:59:32.693Z,26.35
2022-11-30T12:04:45.662Z,29.70
2022-11-30T12:09:57.840Z,24.08
2022-11-30T12:15:03.193Z,29.90
2022-11-30T12:20:31.088Z,22.87
2022-11-30T12:26:12.236Z,21.33
2022-11-30T12:31:18.428Z,21.53
2022-11-30T12:36:36.231Z,19.13
2022-11-30T12:42:05.076Z,17.43
2022-11-30T12:47:31.665Z,16.93
2022-11-30T12:52:36.461Z,18.67
2022-11-30T12:57:49.485Z,15.70
2022-11-30T13:03:28.756Z,18.48
2022-11-30T13:08:43.195Z,17.10
2022-11-30T13:13:55.799Z,16.80
2022-11-30T13:19:27.306Z,18.12
2022-11-30T13:24:37.478Z,20.10
2022-11-30T13:30:07.061Z,16.60
2022-11-30T13:35:27.990Z,21.25
2022-11-30T13:40:30.540Z,16.67
2022-11-30T13:45:34.916Z,20.12
2022-11-30T13:50:40.734Z,19.10
2022-11-30T13:55:42.780Z,15.70
2022-11-30T14:00:59.823Z,18.40
2022-11-30T14:06:28.834Z,20.85
2022-11-30T14:11:38.801Z,20.15
2022-11-30T14:16:42.555Z,20.90
2022-11-30T14:21:44.951Z,16.05
2022-11-30T14:26:50.335Z,20.88
2022-11-30T14:32:16.469Z,20.40
2022-11-30T14:37:35.717Z,17.00
2022-11-30T14:42:37.868Z,18.10
2022-11-30T14:47:45.204Z,17.23
2022-11-30T14:52:52.818Z,17.25
2022-11-30T14:58:10.669Z,19.75
2022-11-30T15:03:28.423Z,25.65
2022-11-30T15:08:38.051Z,21.90
2022-11-30T15:13:49.561Z,17.00
2022-11-30T15:18:57.168Z,13.05
2022-11-30T15:24:01.158Z,15.50
2022-11-30T15:29:06.138Z,17.80
2022-11-30T15:34:37.255Z,14.90
2022-11-30T15:39:44.534Z,15.95
2022-11-30T15:44:47.646Z,15.30
2022-11-30T15:49:54.738Z,17.10
2022-11-30T15:55:02.030Z,20.35
2022-11-30T16:00:16.378Z,21.25
2022-11-30T16:05:19.681Z,16.15
2022-11-30T16:10:25.789Z,16.45
2022-11-30T16:15:35.076Z,15.70
2022-11-30T16:20:37.205Z,18.13
2022-11-30T16:25:39.247Z,16.85
2022-11-30T16:30:41.953Z,16.75
2022-11-30T16:41:24.919Z,15.47
2022-11-30T16:46:29.056Z,13.53
2022-11-30T16:51:34.419Z,15.07
2022-11-30T16:56:36.511Z,16.25
2022-11-30T17:01:48.328Z,17.25
2022-11-30T17:06:53.679Z,14.67
2022-11-30T17:11:58.058Z,15.70
2022-11-30T17:17:02.877Z,15.38
2022-11-30T17:22:05.193Z,15.30
2022-11-30T17:27:07.318Z,17.08
2022-11-30T17:32:09.479Z,12.93
2022-11-30T17:37:13.562Z,15.05
2022-11-30T17:42:15.639Z,12.97
2022-11-30T17:47:17.895Z,14.15
2022-11-30T17:52:19.993Z,14.95
2022-11-30T17:57:22.107Z,15.70
2022-11-30T18:02:24.309Z,14.63
2022-11-30T18:07:26.671Z,14.87
2022-11-30T18:12:28.791Z,15.38
2022-11-30T18:17:32.012Z,15.63
2022-11-30T18:22:34.138Z,14.00
2022-11-30T18:27:36.219Z,14.77
2022-11-30T18:32:38.370Z,10.77
2022-11-30T18:37:40.473Z,12.13
2022-11-30T18:42:42.532Z,10.05
2022-11-30T18:47:44.574Z,12.48
2022-11-30T18:52:46.696Z,14.27
2022-11-30T18:57:49.026Z,13.27
2022-11-30T19:02:51.303Z,15.75
2022-11-30T19:07:53.630Z,12.18
2022-11-30T19:12:56.200Z,12.73
2022-11-30T19:17:58.654Z,7.97
2022-11-30T19:23:00.695Z,10.27
2022-11-30T19:28:02.716Z,12.13
2022-11-30T19:33:04.840Z,11.75
2022-11-30T19:38:07.048Z,13.80
2022-11-30T19:43:09.060Z,14.95
2022-11-30T19:48:11.139Z,17.15
2022-11-30T19:53:13.230Z,14.02
2022-11-30T19:58:15.455Z,12.52
2022-11-30T20:03:17.585Z,11.60
2022-11-30T20:08:19.683Z,12.05
2022-11-30T20:13:21.781Z,12.37
2022-11-30T20:18:23.889Z,11.63
2022-11-30T20:23:25.957Z,10.45
2022-11-30T20:28:28.105Z,20.58
2022-11-30T20:33:30.267Z,18.52
2022-11-30T20:38:32.765Z,15.23
2022-11-30T20:43:34.839Z,15.90
2022-11-30T20:48:36.908Z,16.10
2022-11-30T20:53:39.849Z,14.87
2022-11-30T20:58:42.649Z,15.15
2022-11-30T21:03:45.579Z,13.95
2022-11-30T21:08:47.650Z,14.93
2022-11-30T21:13:51.044Z,13.50
2022-11-30T21:18:53.097Z,11.63
2022-11-30T21:23:55.616Z,12.18
2022-11-30T21:29:05.236Z,12.85
2022-11-30T21:34:07.732Z,10.73
2022-11-30T21:39:13.881Z,10.48
2022-11-30T21:44:17.151Z,10.53
2022-11-30T21:49:19.254Z,10.35
2022-11-30T21:54:21.382Z,12.70
2022-11-30T21:59:23.478Z,12.77
2022-11-30T22:04:26.088Z,10.75
2022-11-30T22:09:28.290Z,10.77
2022-11-30T22:14:30.438Z,13.88
2022-11-30T22:19:32.984Z,14.35
2022-11-30T22:24:35.077Z,12.75
2022-11-30T22:29:37.191Z,11.02
2022-11-30T22:34:39.281Z,10.95
2022-11-30T22:39:41.362Z,14.30
2022-11-30T22:44:43.434Z,17.42
2022-11-30T22:49:46.217Z,16.87
2022-11-30T22:54:48.589Z,17.75
2022-11-30T22:59:50.811Z,16.48
2022-11-30T23:04:52.856Z,12.02
2022-11-30T23:09:57.200Z,12.43
2022-11-30T23:14:59.309Z,13.30
2022-11-30T23:20:01.579Z,12.63
2022-11-30T23:25:04.047Z,15.57
2022-11-30T23:30:06.982Z,20.50
2022-11-30T23:35:09.431Z,18.90
2022-11-30T23:40:12.153Z,15.68
2022-11-30T23:50:16.201Z,17.70
2022-11-30T23:55:18.259Z,12.82
